sensor_id;sensor_type;location;lat;lon;timestamp;temperature;humidity
68385;DHT22;55336;43.062;25.626;2023-12-20T00:02:20;-3.10;99.90
68385;DHT22;55336;43.062;25.626;2023-12-20T00:04:46;-3.10;99.90
68385;DHT22;55336;43.062;25.626;2023-12-20T00:07:11;-3.20;99.90
68385;DHT22;55336;43.062;25.626;2023-12-20T00:09:37;-3.20;99.90
68385;DHT22;55336;43.062;25.626;2023-12-20T00:12:03;-3.30;99.90
68385;DHT22;55336;43.062;25.626;2023-12-20T00:14:29;-3.30;99.90
68385;DHT22;55336;43.062;25.626;2023-12-20T00:16:55;-3.30;99.90
68385;DHT22;55336;43.062;25.626;2023-12-20T00:19:20;-3.30;99.90
68385;DHT22;55336;43.062;25.626;2023-12-20T00:21:46;-3.30;99.90
68385;DHT22;55336;43.062;25.626;2023-12-20T00:24:12;-3.30;99.90
68385;DHT22;55336;43.062;25.626;2023-12-20T00:26:37;-3.30;99.90
68385;DHT22;55336;43.062;25.626;2023-12-20T00:29:03;-3.30;99.90
68385;DHT22;55336;43.062;25.626;2023-12-20T00:31:29;-3.30;99.90
68385;DHT22;55336;43.062;25.626;2023-12-20T00:33:55;-3.20;99.90
68385;DHT22;55336;43.062;25.626;2023-12-20T00:36:20;-3.20;99.90
68385;DHT22;55336;43.062;25.626;2023-12-20T00:38:48;-3.20;99.90
68385;DHT22;55336;43.062;25.626;2023-12-20T00:41:13;-3.10;99.90
68385;DHT22;55336;43.062;25.626;2023-12-20T00:43:39;-3.20;99.90
68385;DHT22;55336;43.062;25.626;2023-12-20T00:46:05;-3.10;99.90
68385;DHT22;55336;43.062;25.626;2023-12-20T00:48:31;-3.10;99.90
68385;DHT22;55336;43.062;25.626;2023-12-20T00:50:57;-3.00;99.90
68385;DHT22;55336;43.062;25.626;2023-12-20T00:53:23;-3.00;99.90
68385;DHT22;55336;43.062;25.626;2023-12-20T00:55:49;-3.10;99.90
68385;DHT22;55336;43.062;25.626;2023-12-20T00:58:17;-3.10;99.90
68385;DHT22;55336;43.062;25.626;2023-12-20T01:00:43;-3.10;99.90
68385;DHT22;55336;43.062;25.626;2023-12-20T01:03:09;-3.20;99.90
68385;DHT22;55336;43.062;25.626;2023-12-20T01:05:35;-3.20;99.90
68385;DHT22;55336;43.062;25.626;2023-12-20T01:08:01;-3.30;99.90
68385;DHT22;55336;43.062;25.626;2023-12-20T01:10:28;-3.30;99.90
68385;DHT22;55336;43.062;25.626;2023-12-20T01:12:55;-3.30;99.90
68385;DHT22;55336;43.062;25.626;2023-12-20T01:15:20;-3.30;99.90
68385;DHT22;55336;43.062;25.626;2023-12-20T01:17:46;-3.40;99.90
68385;DHT22;55336;43.062;25.626;2023-12-20T01:20:13;-3.40;99.90
68385;DHT22;55336;43.062;25.626;2023-12-20T01:22:38;-3.40;99.90
68385;DHT22;55336;43.062;25.626;2023-12-20T01:25:04;-3.50;99.90
68385;DHT22;55336;43.062;25.626;2023-12-20T01:27:30;-3.50;99.90
68385;DHT22;55336;43.062;25.626;2023-12-20T01:29:57;-3.50;99.90
68385;DHT22;55336;43.062;25.626;2023-12-20T01:32:22;-3.50;99.90
68385;DHT22;55336;43.062;25.626;2023-12-20T01:34:48;-3.50;99.90
68385;DHT22;55336;43.062;25.626;2023-12-20T01:37:14;-3.40;99.90
68385;DHT22;55336;43.062;25.626;2023-12-20T01:39:40;-3.40;99.90
68385;DHT22;55336;43.062;25.626;2023-12-20T01:42:05;-3.50;99.90
68385;DHT22;55336;43.062;25.626;2023-12-20T01:44:31;-3.50;99.90
68385;DHT22;55336;43.062;25.626;2023-12-20T01:46:57;-3.50;99.90
68385;DHT22;55336;43.062;25.626;2023-12-20T01:49:23;-3.40;99.90
68385;DHT22;55336;43.062;25.626;2023-12-20T01:51:50;-3.40;99.90
68385;DHT22;55336;43.062;25.626;2023-12-20T01:54:16;-3.50;99.90
68385;DHT22;55336;43.062;25.626;2023-12-20T01:56:42;-3.50;99.90
68385;DHT22;55336;43.062;25.626;2023-12-20T01:59:08;-3.50;99.90
68385;DHT22;55336;43.062;25.626;2023-12-20T02:01:35;-3.50;99.90
68385;DHT22;55336;43.062;25.626;2023-12-20T02:04:02;-3.50;99.90
68385;DHT22;55336;43.062;25.626;2023-12-20T02:06:31;-3.60;99.90
68385;DHT22;55336;43.062;25.626;2023-12-20T02:08:58;-3.60;99.90
68385;DHT22;55336;43.062;25.626;2023-12-20T02:11:27;-3.60;99.90
68385;DHT22;55336;43.062;25.626;2023-12-20T02:13:54;-3.60;99.90
68385;DHT22;55336;43.062;25.626;2023-12-20T02:16:21;-3.70;99.90
68385;DHT22;55336;43.062;25.626;2023-12-20T02:18:47;-3.70;99.90
68385;DHT22;55336;43.062;25.626;2023-12-20T02:21:12;-3.70;99.90
68385;DHT22;55336;43.062;25.626;2023-12-20T02:23:38;-3.60;99.90
68385;DHT22;55336;43.062;25.626;2023-12-20T02:26:04;-3.70;99.90
68385;DHT22;55336;43.062;25.626;2023-12-20T02:28:30;-3.70;99.90
68385;DHT22;55336;43.062;25.626;2023-12-20T02:30:57;-3.70;99.90
68385;DHT22;55336;43.062;25.626;2023-12-20T02:33:23;-3.70;99.90
68385;DHT22;55336;43.062;25.626;2023-12-20T02:35:48;-3.70;99.90
68385;DHT22;55336;43.062;25.626;2023-12-20T02:38:14;-3.70;99.90
68385;DHT22;55336;43.062;25.626;2023-12-20T02:40:40;-3.80;99.90
68385;DHT22;55336;43.062;25.626;2023-12-20T02:43:06;-3.80;99.90
68385;DHT22;55336;43.062;25.626;2023-12-20T02:45:31;-3.80;99.90
68385;DHT22;55336;43.062;25.626;2023-12-20T02:47:57;-3.80;99.90
68385;DHT22;55336;43.062;25.626;2023-12-20T02:50:23;-3.80;99.90
68385;DHT22;55336;43.062;25.626;2023-12-20T02:52:49;-3.80;99.90
68385;DHT22;55336;43.062;25.626;2023-12-20T02:55:15;-3.80;99.90
68385;DHT22;55336;43.062;25.626;2023-12-20T02:57:40;-3.80;99.90
68385;DHT22;55336;43.062;25.626;2023-12-20T03:00:08;-3.80;99.90
68385;DHT22;55336;43.062;25.626;2023-12-20T03:02:35;-3.80;99.90
68385;DHT22;55336;43.062;25.626;2023-12-20T03:05:01;-3.80;99.90
68385;DHT22;55336;43.062;25.626;2023-12-20T03:07:27;-3.80;99.90
68385;DHT22;55336;43.062;25.626;2023-12-20T03:09:53;-3.90;99.90
68385;DHT22;55336;43.062;25.626;2023-12-20T03:12:19;-3.90;99.90
68385;DHT22;55336;43.062;25.626;2023-12-20T03:14:44;-3.90;99.90
68385;DHT22;55336;43.062;25.626;2023-12-20T03:17:10;-3.90;99.90
68385;DHT22;55336;43.062;25.626;2023-12-20T03:19:36;-4.00;99.90
68385;DHT22;55336;43.062;25.626;2023-12-20T03:22:02;-4.00;99.90
68385;DHT22;55336;43.062;25.626;2023-12-20T03:24:28;-4.00;99.90
68385;DHT22;55336;43.062;25.626;2023-12-20T03:26:54;-4.00;99.90
68385;DHT22;55336;43.062;25.626;2023-12-20T03:29:19;-4.00;99.90
68385;DHT22;55336;43.062;25.626;2023-12-20T03:31:48;-3.90;99.90
68385;DHT22;55336;43.062;25.626;2023-12-20T03:34:14;-4.00;99.90
68385;DHT22;55336;43.062;25.626;2023-12-20T03:36:40;-4.00;99.90
68385;DHT22;55336;43.062;25.626;2023-12-20T03:39:05;-4.00;99.90
68385;DHT22;55336;43.062;25.626;2023-12-20T03:41:31;-4.00;99.90
68385;DHT22;55336;43.062;25.626;2023-12-20T03:43:57;-4.10;99.90
68385;DHT22;55336;43.062;25.626;2023-12-20T03:46:23;-4.10;99.90
68385;DHT22;55336;43.062;25.626;2023-12-20T03:48:49;-4.10;99.90
68385;DHT22;55336;43.062;25.626;2023-12-20T03:51:14;-4.20;99.90
68385;DHT22;55336;43.062;25.626;2023-12-20T03:53:40;-4.20;99.90
68385;DHT22;55336;43.062;25.626;2023-12-20T03:56:06;-4.20;99.90
68385;DHT22;55336;43.062;25.626;2023-12-20T03:58:32;-4.20;99.90
68385;DHT22;55336;43.062;25.626;2023-12-20T04:00:58;-4.20;99.90
68385;DHT22;55336;43.062;25.626;2023-12-20T04:03:23;-4.20;99.90
68385;DHT22;55336;43.062;25.626;2023-12-20T04:05:49;-4.30;99.90
68385;DHT22;55336;43.062;25.626;2023-12-20T04:08:15;-4.20;99.90
68385;DHT22;55336;43.062;25.626;2023-12-20T04:10:41;-4.20;99.90
68385;DHT22;55336;43.062;25.626;2023-12-20T04:13:06;-4.30;99.90
68385;DHT22;55336;43.062;25.626;2023-12-20T04:15:32;-4.30;99.90
68385;DHT22;55336;43.062;25.626;2023-12-20T04:17:58;-4.20;99.90
68385;DHT22;55336;43.062;25.626;2023-12-20T04:20:24;-4.20;99.90
68385;DHT22;55336;43.062;25.626;2023-12-20T04:22:49;-4.10;99.90
68385;DHT22;55336;43.062;25.626;2023-12-20T04:25:15;-4.10;99.90
68385;DHT22;55336;43.062;25.626;2023-12-20T04:27:41;-4.10;99.90
68385;DHT22;55336;43.062;25.626;2023-12-20T04:30:07;-4.10;99.90
68385;DHT22;55336;43.062;25.626;2023-12-20T04:32:33;-4.10;99.90
68385;DHT22;55336;43.062;25.626;2023-12-20T04:34:59;-4.20;99.90
68385;DHT22;55336;43.062;25.626;2023-12-20T04:37:24;-4.20;99.90
68385;DHT22;55336;43.062;25.626;2023-12-20T04:39:50;-4.30;99.90
68385;DHT22;55336;43.062;25.626;2023-12-20T04:42:16;-4.20;99.90
68385;DHT22;55336;43.062;25.626;2023-12-20T04:44:42;-4.20;99.90
68385;DHT22;55336;43.062;25.626;2023-12-20T04:47:09;-4.20;99.90
68385;DHT22;55336;43.062;25.626;2023-12-20T04:49:35;-4.20;99.90
68385;DHT22;55336;43.062;25.626;2023-12-20T04:52:00;-4.20;99.90
68385;DHT22;55336;43.062;25.626;2023-12-20T04:54:26;-4.20;99.90
68385;DHT22;55336;43.062;25.626;2023-12-20T04:56:52;-4.20;99.90
68385;DHT22;55336;43.062;25.626;2023-12-20T04:59:18;-4.20;99.90
68385;DHT22;55336;43.062;25.626;2023-12-20T05:01:44;-4.30;99.90
68385;DHT22;55336;43.062;25.626;2023-12-20T05:04:09;-4.30;99.90
68385;DHT22;55336;43.062;25.626;2023-12-20T05:06:35;-4.20;99.90
68385;DHT22;55336;43.062;25.626;2023-12-20T05:09:01;-4.30;99.90
68385;DHT22;55336;43.062;25.626;2023-12-20T05:11:27;-4.40;99.90
68385;DHT22;55336;43.062;25.626;2023-12-20T05:13:52;-4.40;99.90
68385;DHT22;55336;43.062;25.626;2023-12-20T05:16:18;-4.40;99.90
68385;DHT22;55336;43.062;25.626;2023-12-20T05:18:45;-4.40;99.90
68385;DHT22;55336;43.062;25.626;2023-12-20T05:21:11;-4.30;99.90
68385;DHT22;55336;43.062;25.626;2023-12-20T05:23:37;-4.30;99.90
68385;DHT22;55336;43.062;25.626;2023-12-20T05:26:02;-4.30;99.90
68385;DHT22;55336;43.062;25.626;2023-12-20T05:28:28;-4.30;99.90
68385;DHT22;55336;43.062;25.626;2023-12-20T05:30:54;-4.30;99.90
68385;DHT22;55336;43.062;25.626;2023-12-20T05:33:20;-4.20;99.90
68385;DHT22;55336;43.062;25.626;2023-12-20T05:35:46;-4.10;99.90
68385;DHT22;55336;43.062;25.626;2023-12-20T05:38:11;-4.10;99.90
68385;DHT22;55336;43.062;25.626;2023-12-20T05:40:37;-4.00;99.90
68385;DHT22;55336;43.062;25.626;2023-12-20T05:43:03;-3.90;99.90
68385;DHT22;55336;43.062;25.626;2023-12-20T05:45:29;-3.80;99.90
68385;DHT22;55336;43.062;25.626;2023-12-20T05:47:55;-3.80;99.90
68385;DHT22;55336;43.062;25.626;2023-12-20T05:50:20;-3.60;99.90
68385;DHT22;55336;43.062;25.626;2023-12-20T05:52:46;-3.50;99.90
68385;DHT22;55336;43.062;25.626;2023-12-20T05:55:12;-3.40;99.90
68385;DHT22;55336;43.062;25.626;2023-12-20T05:57:38;-3.40;99.90
68385;DHT22;55336;43.062;25.626;2023-12-20T06:00:05;-3.30;99.90
68385;DHT22;55336;43.062;25.626;2023-12-20T06:02:31;-3.20;99.90
68385;DHT22;55336;43.062;25.626;2023-12-20T06:04:58;-3.00;99.90
68385;DHT22;55336;43.062;25.626;2023-12-20T06:07:23;-2.90;99.90
68385;DHT22;55336;43.062;25.626;2023-12-20T06:09:49;-2.70;99.90
68385;DHT22;55336;43.062;25.626;2023-12-20T06:12:15;-2.60;99.90
68385;DHT22;55336;43.062;25.626;2023-12-20T06:14:41;-2.50;99.90
68385;DHT22;55336;43.062;25.626;2023-12-20T06:17:07;-2.40;99.90
68385;DHT22;55336;43.062;25.626;2023-12-20T06:19:32;-2.30;99.90
68385;DHT22;55336;43.062;25.626;2023-12-20T06:21:58;-2.20;99.90
68385;DHT22;55336;43.062;25.626;2023-12-20T06:24:24;-2.10;99.90
68385;DHT22;55336;43.062;25.626;2023-12-20T06:26:53;-2.00;99.90
68385;DHT22;55336;43.062;25.626;2023-12-20T06:29:20;-1.80;99.90
68385;DHT22;55336;43.062;25.626;2023-12-20T06:31:46;-1.60;99.90
68385;DHT22;55336;43.062;25.626;2023-12-20T06:34:11;-1.50;99.90
68385;DHT22;55336;43.062;25.626;2023-12-20T06:36:37;-1.30;99.90
68385;DHT22;55336;43.062;25.626;2023-12-20T06:39:03;-1.20;99.90
68385;DHT22;55336;43.062;25.626;2023-12-20T06:41:30;-1.00;99.90
68385;DHT22;55336;43.062;25.626;2023-12-20T06:43:56;-0.80;99.90
68385;DHT22;55336;43.062;25.626;2023-12-20T06:46:22;-0.70;99.90
68385;DHT22;55336;43.062;25.626;2023-12-20T06:48:47;-0.50;99.90
68385;DHT22;55336;43.062;25.626;2023-12-20T06:51:16;-0.30;99.90
68385;DHT22;55336;43.062;25.626;2023-12-20T06:53:43;-0.10;99.90
68385;DHT22;55336;43.062;25.626;2023-12-20T06:56:11;0.00;99.90
68385;DHT22;55336;43.062;25.626;2023-12-20T06:58:37;0.10;99.90
68385;DHT22;55336;43.062;25.626;2023-12-20T07:01:03;0.20;99.90
68385;DHT22;55336;43.062;25.626;2023-12-20T07:03:30;0.30;99.90
68385;DHT22;55336;43.062;25.626;2023-12-20T07:05:56;0.40;99.90
68385;DHT22;55336;43.062;25.626;2023-12-20T07:08:21;0.60;99.90
68385;DHT22;55336;43.062;25.626;2023-12-20T07:10:47;0.70;99.90
68385;DHT22;55336;43.062;25.626;2023-12-20T07:13:13;0.90;99.90
68385;DHT22;55336;43.062;25.626;2023-12-20T07:15:39;1.20;99.90
68385;DHT22;55336;43.062;25.626;2023-12-20T07:18:05;1.40;99.90
68385;DHT22;55336;43.062;25.626;2023-12-20T07:20:41;1.50;99.90
68385;DHT22;55336;43.062;25.626;2023-12-20T07:23:07;1.60;99.90
68385;DHT22;55336;43.062;25.626;2023-12-20T07:25:33;1.70;99.90
68385;DHT22;55336;43.062;25.626;2023-12-20T07:27:59;1.80;99.90
68385;DHT22;55336;43.062;25.626;2023-12-20T07:30:24;1.90;99.90
68385;DHT22;55336;43.062;25.626;2023-12-20T07:32:50;2.10;99.90
68385;DHT22;55336;43.062;25.626;2023-12-20T07:35:18;2.20;99.90
68385;DHT22;55336;43.062;25.626;2023-12-20T07:37:43;2.40;99.90
68385;DHT22;55336;43.062;25.626;2023-12-20T07:40:10;2.60;99.90
68385;DHT22;55336;43.062;25.626;2023-12-20T07:42:36;2.80;99.90
68385;DHT22;55336;43.062;25.626;2023-12-20T07:45:02;3.00;99.90
68385;DHT22;55336;43.062;25.626;2023-12-20T07:47:28;3.10;99.90
68385;DHT22;55336;43.062;25.626;2023-12-20T07:49:54;3.20;99.90
68385;DHT22;55336;43.062;25.626;2023-12-20T07:52:20;3.50;99.90
68385;DHT22;55336;43.062;25.626;2023-12-20T07:54:48;3.60;99.90
68385;DHT22;55336;43.062;25.626;2023-12-20T07:57:14;3.70;99.90
68385;DHT22;55336;43.062;25.626;2023-12-20T07:59:39;3.90;99.90
68385;DHT22;55336;43.062;25.626;2023-12-20T08:02:08;4.10;99.90
68385;DHT22;55336;43.062;25.626;2023-12-20T08:04:33;4.30;99.90
68385;DHT22;55336;43.062;25.626;2023-12-20T08:06:59;4.50;99.90
68385;DHT22;55336;43.062;25.626;2023-12-20T08:09:26;4.70;99.90
68385;DHT22;55336;43.062;25.626;2023-12-20T08:12:10;4.70;99.90
68385;DHT22;55336;43.062;25.626;2023-12-20T08:14:37;4.80;99.90
68385;DHT22;55336;43.062;25.626;2023-12-20T08:21:03;5.70;99.90
68385;DHT22;55336;43.062;25.626;2023-12-20T08:23:29;6.30;99.90
68385;DHT22;55336;43.062;25.626;2023-12-20T08:25:54;6.50;99.90
68385;DHT22;55336;43.062;25.626;2023-12-20T08:28:20;6.90;99.90
68385;DHT22;55336;43.062;25.626;2023-12-20T08:30:46;7.00;99.90
68385;DHT22;55336;43.062;25.626;2023-12-20T08:33:12;7.30;99.90
68385;DHT22;55336;43.062;25.626;2023-12-20T08:35:39;7.10;99.90
68385;DHT22;55336;43.062;25.626;2023-12-20T08:38:05;7.00;99.90
68385;DHT22;55336;43.062;25.626;2023-12-20T08:40:31;6.90;99.90
68385;DHT22;55336;43.062;25.626;2023-12-20T08:42:57;6.70;99.90
68385;DHT22;55336;43.062;25.626;2023-12-20T08:45:24;6.40;99.90
68385;DHT22;55336;43.062;25.626;2023-12-20T08:47:50;6.00;99.90
68385;DHT22;55336;43.062;25.626;2023-12-20T08:50:16;5.90;99.90
68385;DHT22;55336;43.062;25.626;2023-12-20T08:52:42;5.90;99.90
68385;DHT22;55336;43.062;25.626;2023-12-20T08:55:15;6.30;99.90
68385;DHT22;55336;43.062;25.626;2023-12-20T08:57:46;6.60;99.90
68385;DHT22;55336;43.062;25.626;2023-12-20T09:00:12;7.20;99.90
68385;DHT22;55336;43.062;25.626;2023-12-20T09:02:39;7.60;99.90
68385;DHT22;55336;43.062;25.626;2023-12-20T09:05:05;8.00;99.90
68385;DHT22;55336;43.062;25.626;2023-12-20T09:07:31;8.40;99.90
68385;DHT22;55336;43.062;25.626;2023-12-20T09:09:58;8.60;99.90
68385;DHT22;55336;43.062;25.626;2023-12-20T09:12:24;8.60;99.90
68385;DHT22;55336;43.062;25.626;2023-12-20T09:14:51;8.80;99.90
68385;DHT22;55336;43.062;25.626;2023-12-20T09:17:17;9.10;99.90
68385;DHT22;55336;43.062;25.626;2023-12-20T09:19:44;9.30;99.90
68385;DHT22;55336;43.062;25.626;2023-12-20T09:22:10;9.60;99.90
68385;DHT22;55336;43.062;25.626;2023-12-20T09:24:36;9.90;99.90
68385;DHT22;55336;43.062;25.626;2023-12-20T09:27:05;10.10;99.90
68385;DHT22;55336;43.062;25.626;2023-12-20T09:29:31;10.50;99.90
68385;DHT22;55336;43.062;25.626;2023-12-20T09:32:26;10.60;99.90
68385;DHT22;55336;43.062;25.626;2023-12-20T09:34:56;11.00;99.90
68385;DHT22;55336;43.062;25.626;2023-12-20T09:37:34;11.20;99.90
68385;DHT22;55336;43.062;25.626;2023-12-20T09:40:00;11.70;99.90
68385;DHT22;55336;43.062;25.626;2023-12-20T09:43:10;12.00;99.90
68385;DHT22;55336;43.062;25.626;2023-12-20T09:45:20;12.20;99.90
68385;DHT22;55336;43.062;25.626;2023-12-20T09:47:49;12.50;99.90
68385;DHT22;55336;43.062;25.626;2023-12-20T09:50:17;12.50;99.90
68385;DHT22;55336;43.062;25.626;2023-12-20T09:53:19;12.60;99.90
68385;DHT22;55336;43.062;25.626;2023-12-20T09:59:19;12.90;99.90
68385;DHT22;55336;43.062;25.626;2023-12-20T10:05:16;12.90;99.90
68385;DHT22;55336;43.062;25.626;2023-12-20T10:07:46;13.50;99.90
68385;DHT22;55336;43.062;25.626;2023-12-20T10:10:13;13.80;99.90
68385;DHT22;55336;43.062;25.626;2023-12-20T10:12:40;14.10;99.90
68385;DHT22;55336;43.062;25.626;2023-12-20T10:15:06;14.30;99.90
68385;DHT22;55336;43.062;25.626;2023-12-20T10:17:32;14.60;99.90
68385;DHT22;55336;43.062;25.626;2023-12-20T10:20:00;14.60;99.90
68385;DHT22;55336;43.062;25.626;2023-12-20T10:22:26;14.90;99.90
68385;DHT22;55336;43.062;25.626;2023-12-20T10:24:56;15.00;99.90
68385;DHT22;55336;43.062;25.626;2023-12-20T10:27:22;15.10;99.90
68385;DHT22;55336;43.062;25.626;2023-12-20T10:29:47;15.20;99.90
68385;DHT22;55336;43.062;25.626;2023-12-20T10:32:26;15.40;99.90
68385;DHT22;55336;43.062;25.626;2023-12-20T10:34:55;15.50;96.80
68385;DHT22;55336;43.062;25.626;2023-12-20T10:37:22;15.30;98.20
68385;DHT22;55336;43.062;25.626;2023-12-20T10:39:53;15.30;98.60
68385;DHT22;55336;43.062;25.626;2023-12-20T10:45:39;15.60;96.40
68385;DHT22;55336;43.062;25.626;2023-12-20T10:48:07;15.70;96.40
68385;DHT22;55336;43.062;25.626;2023-12-20T10:50:36;15.80;96.20
68385;DHT22;55336;43.062;25.626;2023-12-20T10:53:06;16.00;94.50
68385;DHT22;55336;43.062;25.626;2023-12-20T10:55:32;16.20;94.10
68385;DHT22;55336;43.062;25.626;2023-12-20T10:58:19;16.00;94.50
68385;DHT22;55336;43.062;25.626;2023-12-20T11:00:47;15.90;95.40
68385;DHT22;55336;43.062;25.626;2023-12-20T11:03:17;15.80;94.30
68385;DHT22;55336;43.062;25.626;2023-12-20T11:08:41;15.90;93.80
68385;DHT22;55336;43.062;25.626;2023-12-20T11:11:32;16.00;93.10
68385;DHT22;55336;43.062;25.626;2023-12-20T11:14:11;15.90;94.80
68385;DHT22;55336;43.062;25.626;2023-12-20T11:16:40;15.90;97.60
68385;DHT22;55336;43.062;25.626;2023-12-20T11:19:06;15.90;96.80
68385;DHT22;55336;43.062;25.626;2023-12-20T11:21:32;16.00;95.10
68385;DHT22;55336;43.062;25.626;2023-12-20T11:23:59;16.20;93.60
68385;DHT22;55336;43.062;25.626;2023-12-20T11:26:29;16.10;92.00
68385;DHT22;55336;43.062;25.626;2023-12-20T11:32:00;15.90;95.00
68385;DHT22;55336;43.062;25.626;2023-12-20T11:34:28;16.10;93.80
68385;DHT22;55336;43.062;25.626;2023-12-20T11:37:02;16.00;93.50
68385;DHT22;55336;43.062;25.626;2023-12-20T11:39:28;16.00;89.40
68385;DHT22;55336;43.062;25.626;2023-12-20T11:41:56;15.80;94.40
68385;DHT22;55336;43.062;25.626;2023-12-20T11:44:24;15.80;95.40
68385;DHT22;55336;43.062;25.626;2023-12-20T11:46:51;15.90;95.40
68385;DHT22;55336;43.062;25.626;2023-12-20T11:49:23;16.10;95.30
68385;DHT22;55336;43.062;25.626;2023-12-20T11:51:49;16.40;92.50
68385;DHT22;55336;43.062;25.626;2023-12-20T11:54:15;16.20;93.60
68385;DHT22;55336;43.062;25.626;2023-12-20T11:56:42;16.50;92.40
68385;DHT22;55336;43.062;25.626;2023-12-20T11:59:08;16.40;91.70
68385;DHT22;55336;43.062;25.626;2023-12-20T12:01:34;16.50;92.90
68385;DHT22;55336;43.062;25.626;2023-12-20T12:04:07;16.20;94.30
68385;DHT22;55336;43.062;25.626;2023-12-20T12:06:33;16.00;97.40
68385;DHT22;55336;43.062;25.626;2023-12-20T12:08:59;16.00;98.00
68385;DHT22;55336;43.062;25.626;2023-12-20T12:11:25;15.90;99.90
68385;DHT22;55336;43.062;25.626;2023-12-20T12:13:51;15.90;99.50
68385;DHT22;55336;43.062;25.626;2023-12-20T12:16:17;15.80;99.90
68385;DHT22;55336;43.062;25.626;2023-12-20T12:18:44;15.40;99.90
68385;DHT22;55336;43.062;25.626;2023-12-20T12:21:10;15.40;99.90
68385;DHT22;55336;43.062;25.626;2023-12-20T12:23:36;15.30;99.90
68385;DHT22;55336;43.062;25.626;2023-12-20T12:26:04;15.40;99.90
68385;DHT22;55336;43.062;25.626;2023-12-20T12:28:30;15.70;99.90
68385;DHT22;55336;43.062;25.626;2023-12-20T12:31:01;15.90;99.90
68385;DHT22;55336;43.062;25.626;2023-12-20T12:33:26;16.40;99.90
68385;DHT22;55336;43.062;25.626;2023-12-20T12:35:53;16.60;99.90
68385;DHT22;55336;43.062;25.626;2023-12-20T12:38:22;16.60;99.90
68385;DHT22;55336;43.062;25.626;2023-12-20T12:41:06;16.80;95.80
68385;DHT22;55336;43.062;25.626;2023-12-20T12:43:32;16.60;95.80
68385;DHT22;55336;43.062;25.626;2023-12-20T12:45:58;16.70;98.30
68385;DHT22;55336;43.062;25.626;2023-12-20T12:48:24;16.80;98.00
68385;DHT22;55336;43.062;25.626;2023-12-20T12:50:50;16.60;99.90
68385;DHT22;55336;43.062;25.626;2023-12-20T12:53:18;16.50;99.90
68385;DHT22;55336;43.062;25.626;2023-12-20T12:55:44;16.20;99.90
68385;DHT22;55336;43.062;25.626;2023-12-20T12:58:09;15.80;99.90
68385;DHT22;55336;43.062;25.626;2023-12-20T13:00:35;15.30;99.90
68385;DHT22;55336;43.062;25.626;2023-12-20T13:03:01;14.90;99.90
68385;DHT22;55336;43.062;25.626;2023-12-20T13:05:27;14.60;99.90
68385;DHT22;55336;43.062;25.626;2023-12-20T13:07:53;14.10;99.90
68385;DHT22;55336;43.062;25.626;2023-12-20T13:10:19;13.70;99.90
68385;DHT22;55336;43.062;25.626;2023-12-20T13:12:45;13.40;99.90
68385;DHT22;55336;43.062;25.626;2023-12-20T13:15:11;13.00;99.90
68385;DHT22;55336;43.062;25.626;2023-12-20T13:17:37;12.70;99.90
68385;DHT22;55336;43.062;25.626;2023-12-20T13:20:03;12.40;99.90
68385;DHT22;55336;43.062;25.626;2023-12-20T13:22:31;12.20;99.90
68385;DHT22;55336;43.062;25.626;2023-12-20T13:24:57;11.90;99.90
68385;DHT22;55336;43.062;25.626;2023-12-20T13:27:23;11.70;99.90
68385;DHT22;55336;43.062;25.626;2023-12-20T13:29:49;11.50;99.90
68385;DHT22;55336;43.062;25.626;2023-12-20T13:32:15;11.40;99.90
68385;DHT22;55336;43.062;25.626;2023-12-20T13:34:41;11.30;99.90
68385;DHT22;55336;43.062;25.626;2023-12-20T13:37:06;11.20;99.90
68385;DHT22;55336;43.062;25.626;2023-12-20T13:39:32;11.00;99.90
68385;DHT22;55336;43.062;25.626;2023-12-20T13:41:58;10.90;99.90
68385;DHT22;55336;43.062;25.626;2023-12-20T13:44:24;10.80;99.90
68385;DHT22;55336;43.062;25.626;2023-12-20T13:46:50;10.70;99.90
68385;DHT22;55336;43.062;25.626;2023-12-20T13:49:16;10.60;99.90
68385;DHT22;55336;43.062;25.626;2023-12-20T13:51:42;10.40;99.90
68385;DHT22;55336;43.062;25.626;2023-12-20T13:54:08;10.40;99.90
68385;DHT22;55336;43.062;25.626;2023-12-20T13:56:36;9.60;99.90
68385;DHT22;55336;43.062;25.626;2023-12-20T13:59:02;10.00;99.90
68385;DHT22;55336;43.062;25.626;2023-12-20T14:01:28;9.90;99.90
68385;DHT22;55336;43.062;25.626;2023-12-20T14:03:54;9.70;99.90
68385;DHT22;55336;43.062;25.626;2023-12-20T14:06:19;9.60;99.90
68385;DHT22;55336;43.062;25.626;2023-12-20T14:08:45;9.40;99.90
68385;DHT22;55336;43.062;25.626;2023-12-20T14:11:11;9.30;99.90
68385;DHT22;55336;43.062;25.626;2023-12-20T14:13:38;9.30;99.90
68385;DHT22;55336;43.062;25.626;2023-12-20T14:16:06;9.20;99.90
68385;DHT22;55336;43.062;25.626;2023-12-20T14:18:33;9.00;99.90
68385;DHT22;55336;43.062;25.626;2023-12-20T14:20:59;8.90;99.90
68385;DHT22;55336;43.062;25.626;2023-12-20T14:23:25;8.80;99.90
68385;DHT22;55336;43.062;25.626;2023-12-20T14:25:51;8.70;99.90
68385;DHT22;55336;43.062;25.626;2023-12-20T14:28:17;8.60;99.90
68385;DHT22;55336;43.062;25.626;2023-12-20T14:30:43;8.40;99.90
68385;DHT22;55336;43.062;25.626;2023-12-20T14:33:09;8.30;99.90
68385;DHT22;55336;43.062;25.626;2023-12-20T14:35:35;8.10;99.90
68385;DHT22;55336;43.062;25.626;2023-12-20T14:38:00;8.00;99.90
68385;DHT22;55336;43.062;25.626;2023-12-20T14:40:26;7.80;99.90
68385;DHT22;55336;43.062;25.626;2023-12-20T14:42:52;7.60;99.90
68385;DHT22;55336;43.062;25.626;2023-12-20T14:45:22;7.50;99.90
68385;DHT22;55336;43.062;25.626;2023-12-20T14:47:47;7.40;99.90
68385;DHT22;55336;43.062;25.626;2023-12-20T14:50:14;7.20;99.90
68385;DHT22;55336;43.062;25.626;2023-12-20T14:52:47;7.10;99.90
68385;DHT22;55336;43.062;25.626;2023-12-20T14:55:13;7.00;99.90
68385;DHT22;55336;43.062;25.626;2023-12-20T14:57:38;6.90;99.90
68385;DHT22;55336;43.062;25.626;2023-12-20T15:00:06;6.70;99.90
68385;DHT22;55336;43.062;25.626;2023-12-20T15:02:32;6.60;99.90
68385;DHT22;55336;43.062;25.626;2023-12-20T15:04:59;6.50;99.90
68385;DHT22;55336;43.062;25.626;2023-12-20T15:07:25;6.40;99.90
68385;DHT22;55336;43.062;25.626;2023-12-20T15:09:51;6.30;99.90
68385;DHT22;55336;43.062;25.626;2023-12-20T15:12:16;6.30;99.90
68385;DHT22;55336;43.062;25.626;2023-12-20T15:14:42;6.30;99.90
68385;DHT22;55336;43.062;25.626;2023-12-20T15:17:08;6.20;99.90
68385;DHT22;55336;43.062;25.626;2023-12-20T15:19:34;6.10;99.90
68385;DHT22;55336;43.062;25.626;2023-12-20T15:22:01;6.00;99.90
68385;DHT22;55336;43.062;25.626;2023-12-20T15:24:27;5.90;99.90
68385;DHT22;55336;43.062;25.626;2023-12-20T15:27:02;5.80;99.90
68385;DHT22;55336;43.062;25.626;2023-12-20T15:29:29;5.70;99.90
68385;DHT22;55336;43.062;25.626;2023-12-20T15:31:56;5.70;99.90
68385;DHT22;55336;43.062;25.626;2023-12-20T15:34:22;5.50;99.90
68385;DHT22;55336;43.062;25.626;2023-12-20T15:36:48;5.40;99.90
68385;DHT22;55336;43.062;25.626;2023-12-20T15:39:13;5.40;99.90